createdAt,value
2019-01-20T00:01:00.671Z,-1.73
2019-01-20T00:06:10.020Z,-1.86
2019-01-20T00:11:22.024Z,-1.92
2019-01-20T00:16:32.247Z,-1.94
2019-01-20T00:21:41.993Z,-1.94
2019-01-20T00:26:53.156Z,-1.97
2019-01-20T00:32:03.822Z,-1.89
2019-01-20T00:37:15.461Z,-1.84
2019-01-20T00:42:25.131Z,-1.95
2019-01-20T00:47:38.116Z,-1.95
2019-01-20T00:52:52.016Z,-2.02
2019-01-20T00:58:06.788Z,-2.03
2019-01-20T01:03:16.987Z,-2.04
2019-01-20T01:08:25.875Z,-1.96
2019-01-20T01:13:39.293Z,-1.98
2019-01-20T01:18:50.567Z,-2.10
2019-01-20T01:23:59.478Z,-2.16
2019-01-20T01:29:27.277Z,-2.11
2019-01-20T01:34:36.168Z,-2.08
2019-01-20T01:39:43.890Z,-2.12
2019-01-20T01:44:54.615Z,-2.15
2019-01-20T01:50:05.434Z,-2.20
2019-01-20T01:55:17.519Z,-2.29
2019-01-20T02:00:27.991Z,-2.17
2019-01-20T02:05:34.551Z,-2.25
2019-01-20T02:10:43.444Z,-2.34
2019-01-20T02:15:55.044Z,-2.30
2019-01-20T02:21:01.641Z,-2.43
2019-01-20T02:26:12.418Z,-2.42
2019-01-20T02:31:20.552Z,-2.34
2019-01-20T02:36:30.307Z,-2.40
2019-01-20T02:41:39.444Z,-2.43
2019-01-20T02:46:48.748Z,-2.28
2019-01-20T02:51:59.474Z,-2.28
2019-01-20T02:57:08.290Z,-2.27
2019-01-20T03:02:30.671Z,-2.28
2019-01-20T03:07:47.334Z,-2.29
2019-01-20T03:13:03.716Z,-2.45
2019-01-20T03:18:10.510Z,-2.53
2019-01-20T03:23:17.540Z,-2.54
2019-01-20T03:28:29.478Z,-2.58
2019-01-20T03:33:38.056Z,-2.53
2019-01-20T03:38:47.813Z,-2.60
2019-01-20T03:43:57.489Z,-2.54
2019-01-20T03:49:03.219Z,-2.60
2019-01-20T03:54:11.461Z,-2.61
2019-01-20T03:59:23.322Z,-2.65
2019-01-20T04:04:32.644Z,-2.59
2019-01-20T04:09:43.302Z,-2.53
2019-01-20T04:14:54.022Z,-2.61
2019-01-20T04:20:23.235Z,-2.64
2019-01-20T04:25:32.230Z,-2.70
2019-01-20T04:30:40.228Z,-2.71
2019-01-20T04:35:49.992Z,-2.73
2019-01-20T04:41:00.762Z,-2.74
2019-01-20T04:46:11.843Z,-2.86
2019-01-20T04:51:20.902Z,-2.90
2019-01-20T04:56:29.766Z,-2.86
2019-01-20T05:01:39.465Z,-2.87
2019-01-20T05:06:52.809Z,-2.96
2019-01-20T05:12:03.534Z,-2.94
2019-01-20T05:17:15.973Z,-2.95
2019-01-20T05:22:29.390Z,-3.03
2019-01-20T05:28:51.490Z,-3.05
2019-01-20T05:34:01.286Z,-2.93
2019-01-20T05:39:10.511Z,-3.05
2019-01-20T05:44:19.942Z,-3.12
2019-01-20T05:49:29.727Z,-3.21
2019-01-20T05:54:37.231Z,-3.20
2019-01-20T05:59:48.940Z,-3.32
2019-01-20T06:05:00.147Z,-3.36
2019-01-20T06:10:12.902Z,-3.31
2019-01-20T06:15:25.487Z,-3.31
2019-01-20T06:20:38.854Z,-3.37
2019-01-20T06:25:48.590Z,-3.50
2019-01-20T06:30:58.075Z,-3.38
2019-01-20T06:36:05.955Z,-3.28
2019-01-20T06:41:17.442Z,-3.34
2019-01-20T06:46:28.108Z,-3.33
2019-01-20T06:51:37.927Z,-3.36
2019-01-20T06:56:47.305Z,-3.41
2019-01-20T07:01:58.841Z,-3.39
2019-01-20T07:07:07.268Z,-3.36
2019-01-20T07:12:17.250Z,-3.49
2019-01-20T07:17:25.924Z,-3.57
2019-01-20T07:22:36.100Z,-3.55
2019-01-20T07:27:46.787Z,-3.56
2019-01-20T07:32:55.879Z,-3.64
2019-01-20T07:38:04.375Z,-3.54
2019-01-20T07:43:17.007Z,-3.59
2019-01-20T07:48:23.043Z,-3.58
2019-01-20T07:53:33.768Z,-3.66
2019-01-20T07:58:42.748Z,-3.58
2019-01-20T08:03:56.425Z,-3.54
2019-01-20T08:09:03.463Z,-3.43
2019-01-20T08:14:13.763Z,-3.39
2019-01-20T08:19:23.149Z,-3.32
2019-01-20T08:24:34.757Z,-3.35
2019-01-20T08:29:43.619Z,-3.39
2019-01-20T08:34:53.445Z,-3.38
2019-01-20T08:40:00.981Z,-3.20
2019-01-20T08:45:14.439Z,-3.23
2019-01-20T08:50:26.895Z,-3.10
2019-01-20T08:55:34.232Z,-2.78
2019-01-20T09:00:49.351Z,-2.71
2019-01-20T09:05:59.126Z,-2.66
2019-01-20T09:11:08.842Z,-2.52
2019-01-20T09:16:22.701Z,-2.18
2019-01-20T09:21:29.846Z,-2.11
2019-01-20T09:26:40.046Z,-1.97
2019-01-20T09:31:49.868Z,-1.36
2019-01-20T09:36:59.300Z,-0.56
2019-01-20T09:42:09.990Z,0.59
2019-01-20T09:47:19.319Z,1.90
2019-01-20T09:52:28.128Z,2.71
2019-01-20T09:57:37.923Z,3.66
2019-01-20T10:02:52.488Z,4.76
2019-01-20T10:08:02.896Z,6.10
2019-01-20T10:13:12.675Z,7.85
2019-01-20T10:18:29.740Z,7.81
2019-01-20T10:23:40.805Z,8.66
2019-01-20T10:28:49.138Z,8.64
2019-01-20T10:34:02.520Z,9.81
2019-01-20T10:39:12.206Z,10.30
2019-01-20T10:44:26.272Z,7.85
2019-01-20T10:49:34.751Z,8.49
2019-01-20T10:54:44.845Z,9.99
2019-01-20T10:59:57.417Z,10.89
2019-01-20T11:05:05.402Z,10.95
2019-01-20T11:10:13.153Z,10.39
2019-01-20T11:15:27.405Z,11.23
2019-01-20T11:20:34.994Z,10.68
2019-01-20T11:25:50.372Z,11.30
2019-01-20T11:30:59.666Z,11.24
2019-01-20T11:36:08.546Z,9.73
2019-01-20T11:41:28.463Z,8.18
2019-01-20T11:46:39.111Z,8.89
2019-01-20T11:51:51.103Z,9.81
2019-01-20T11:57:02.675Z,10.06
2019-01-20T12:02:10.567Z,13.23
2019-01-20T12:07:21.267Z,13.20
2019-01-20T12:12:32.380Z,11.86
2019-01-20T12:17:40.329Z,12.61
2019-01-20T12:22:52.322Z,14.83
2019-01-20T12:28:02.569Z,16.57
2019-01-20T12:33:15.183Z,16.24
2019-01-20T12:38:25.894Z,15.55
2019-01-20T12:43:36.554Z,16.51
2019-01-20T12:48:43.305Z,18.86
2019-01-20T12:53:50.534Z,19.69
2019-01-20T12:59:02.751Z,20.80
2019-01-20T13:04:13.896Z,17.25
2019-01-20T13:09:22.509Z,19.09
2019-01-20T13:14:39.271Z,17.42
2019-01-20T13:19:47.296Z,19.37
2019-01-20T13:24:57.222Z,18.81
2019-01-20T13:30:09.939Z,19.34
2019-01-20T13:35:20.613Z,19.81
2019-01-20T13:40:39.223Z,21.14
2019-01-20T13:45:48.133Z,21.15
2019-01-20T13:51:00.741Z,20.71
2019-01-20T13:56:10.885Z,18.22
2019-01-20T14:01:24.066Z,18.42
2019-01-20T14:06:33.587Z,17.37
2019-01-20T14:11:43.344Z,18.27
2019-01-20T14:16:53.222Z,17.20
2019-01-20T14:22:00.935Z,19.26
2019-01-20T14:27:09.254Z,15.17
2019-01-20T14:32:22.787Z,12.01
2019-01-20T14:37:31.634Z,10.61
2019-01-20T14:42:39.711Z,9.78
2019-01-20T14:47:46.224Z,7.96
2019-01-20T14:52:53.922Z,8.54
2019-01-20T14:58:07.448Z,9.07
2019-01-20T15:03:18.894Z,8.66
2019-01-20T15:08:31.490Z,7.87
2019-01-20T15:13:44.945Z,5.99
2019-01-20T15:18:52.875Z,6.46
2019-01-20T15:24:02.242Z,6.46
2019-01-20T15:29:12.073Z,6.10
2019-01-20T15:34:19.457Z,5.84
2019-01-20T15:39:27.588Z,5.54
2019-01-20T15:44:36.725Z,5.60
2019-01-20T15:49:44.922Z,5.68
2019-01-20T15:54:53.015Z,5.19
2019-01-20T16:00:04.963Z,5.25
2019-01-20T16:05:14.269Z,5.25
2019-01-20T16:10:22.255Z,5.62
2019-01-20T16:15:36.189Z,5.73
2019-01-20T16:20:44.149Z,5.15
2019-01-20T16:25:53.862Z,5.00
2019-01-20T16:31:07.658Z,5.13
2019-01-20T16:36:17.659Z,5.00
2019-01-20T16:41:27.112Z,5.11
2019-01-20T16:46:39.622Z,4.93
2019-01-20T16:51:54.962Z,4.76
2019-01-20T16:57:06.562Z,4.73
2019-01-20T17:02:15.881Z,4.62
2019-01-20T17:07:26.799Z,4.48
2019-01-20T17:12:36.538Z,4.20
2019-01-20T17:17:47.238Z,4.20
2019-01-20T17:23:02.754Z,4.03
2019-01-20T17:28:11.464Z,3.93
2019-01-20T17:33:23.204Z,3.86
2019-01-20T17:38:30.236Z,3.79
2019-01-20T17:43:38.373Z,3.64
2019-01-20T17:48:48.181Z,3.64
2019-01-20T17:53:56.808Z,3.56
2019-01-20T17:59:04.986Z,3.55
2019-01-20T18:04:17.713Z,3.40
2019-01-20T18:09:45.962Z,3.23
2019-01-20T18:14:54.840Z,3.06
2019-01-20T18:20:07.301Z,2.91
2019-01-20T18:25:17.801Z,2.76
2019-01-20T18:30:27.903Z,2.62
2019-01-20T18:35:42.418Z,2.51
2019-01-20T18:40:50.982Z,2.32
2019-01-20T18:46:01.874Z,2.09
2019-01-20T18:51:11.983Z,2.06
2019-01-20T18:56:22.674Z,1.99
2019-01-20T19:01:31.080Z,1.84
2019-01-20T19:06:40.438Z,1.76
2019-01-20T19:11:49.813Z,1.67
2019-01-20T19:16:55.946Z,1.43
2019-01-20T19:22:07.721Z,1.22
2019-01-20T19:27:18.606Z,1.17
2019-01-20T19:32:30.406Z,1.18
2019-01-20T19:37:40.428Z,1.23
2019-01-20T19:42:49.029Z,1.18
2019-01-20T19:48:01.040Z,0.99
2019-01-20T19:53:14.574Z,0.78
2019-01-20T19:58:27.279Z,0.53
2019-01-20T20:03:36.964Z,0.39
2019-01-20T20:08:46.796Z,0.32
2019-01-20T20:13:59.781Z,0.28
2019-01-20T20:19:10.638Z,0.12
2019-01-20T20:24:25.251Z,0.12
2019-01-20T20:29:34.632Z,0.07
2019-01-20T20:34:48.137Z,-0.01
2019-01-20T20:39:58.174Z,-0.04
2019-01-20T20:45:08.424Z,-0.01
2019-01-20T20:50:20.834Z,0.10
2019-01-20T20:55:28.134Z,0.23
2019-01-20T21:00:43.790Z,0.37
2019-01-20T21:05:53.508Z,0.37
2019-01-20T21:11:01.641Z,0.27
2019-01-20T21:16:11.431Z,0.09
2019-01-20T21:21:21.225Z,-0.10
2019-01-20T21:26:30.982Z,-0.19
2019-01-20T21:31:42.571Z,-0.27
2019-01-20T21:36:50.960Z,-0.47
2019-01-20T21:41:59.904Z,-0.47
2019-01-20T21:47:12.103Z,-0.58
2019-01-20T21:52:22.959Z,-0.66
2019-01-20T21:57:32.008Z,-0.73
2019-01-20T22:02:42.172Z,-0.83
2019-01-20T22:07:50.591Z,-0.91
2019-01-20T22:13:00.667Z,-0.97
2019-01-20T22:18:11.559Z,-1.06
2019-01-20T22:23:19.285Z,-1.16
2019-01-20T22:28:29.592Z,-1.14
2019-01-20T22:33:39.305Z,-1.23
2019-01-20T22:38:51.013Z,-1.35
2019-01-20T22:44:01.768Z,-1.38
2019-01-20T22:49:11.114Z,-1.40
2019-01-20T22:54:23.595Z,-1.48
2019-01-20T22:59:32.455Z,-1.51
2019-01-20T23:04:41.733Z,-1.58
2019-01-20T23:09:52.397Z,-1.64
2019-01-20T23:15:05.029Z,-1.67
2019-01-20T23:20:14.031Z,-1.77
2019-01-20T23:25:21.289Z,-1.88
2019-01-20T23:30:28.849Z,-1.90
2019-01-20T23:35:39.461Z,-1.92
2019-01-20T23:40:49.424Z,-1.99
2019-01-20T23:45:59.184Z,-1.99
2019-01-20T23:51:08.296Z,-1.98
2019-01-20T23:56:19.877Z,-2.06
